sensor_id;sensor_type;location;lat;lon;timestamp;P1;P2;P0
13030;PMS7003;6582;54.644;9.760;2023-06-10T00:00:01;149.7;144.2;
13030;PMS7003;6582;54.644;9.760;2023-06-10T00:05:01;133.5;126.7;
13030;PMS7003;6582;54.644;9.760;2023-06-10T00:10:01;129.2;122.8;
13030;PMS7003;6582;54.644;9.760;2023-06-10T00:15:01;125.5;119.6;
13030;PMS7003;6582;54.644;9.760;2023-06-10T00:20:01;124.0;118.1;
13030;PMS7003;6582;54.644;9.760;2023-06-10T00:25:01;121.5;115.4;
13030;PMS7003;6582;54.644;9.760;2023-06-10T00:30:03;133.4;129.2;
13030;PMS7003;6582;54.644;9.760;2023-06-10T00:35:02;130.4;125.9;
13030;PMS7003;6582;54.644;9.760;2023-06-10T00:40:02;125.4;119.9;
13030;PMS7003;6582;54.644;9.760;2023-06-10T00:45:01;129.6;123.8;
13030;PMS7003;6582;54.644;9.760;2023-06-10T00:50:01;121.2;112.9;
13030;PMS7003;6582;54.644;9.760;2023-06-10T00:55:01;121.4;112.6;
13030;PMS7003;6582;54.644;9.760;2023-06-10T01:00:01;124.4;116.3;
13030;PMS7003;6582;54.644;9.760;2023-06-10T01:05:01;125.2;117.8;
13030;PMS7003;6582;54.644;9.760;2023-06-10T01:10:04;124.2;117.2;
13030;PMS7003;6582;54.644;9.760;2023-06-10T01:15:01;132.4;128.0;
13030;PMS7003;6582;54.644;9.760;2023-06-10T01:20:06;128.7;124.0;
13030;PMS7003;6582;54.644;9.760;2023-06-10T01:25:07;130.0;124.1;
13030;PMS7003;6582;54.644;9.760;2023-06-10T01:30:08;136.8;130.2;
13030;PMS7003;6582;54.644;9.760;2023-06-10T01:35:02;140.0;131.7;
13030;PMS7003;6582;54.644;9.760;2023-06-10T01:40:02;144.8;135.9;
13030;PMS7003;6582;54.644;9.760;2023-06-10T01:45:01;152.8;143.6;
13030;PMS7003;6582;54.644;9.760;2023-06-10T01:50:01;156.1;146.6;
13030;PMS7003;6582;54.644;9.760;2023-06-10T01:55:01;160.2;150.2;
13030;PMS7003;6582;54.644;9.760;2023-06-10T02:00:01;164.0;155.1;
13030;PMS7003;6582;54.644;9.760;2023-06-10T02:05:01;162.1;153.6;
13030;PMS7003;6582;54.644;9.760;2023-06-10T02:10:01;170.6;162.0;
13030;PMS7003;6582;54.644;9.760;2023-06-10T02:15:06;180.6;173.3;
13030;PMS7003;6582;54.644;9.760;2023-06-10T02:20:03;189.5;182.9;
13030;PMS7003;6582;54.644;9.760;2023-06-10T02:25:07;193.2;187.3;
13030;PMS7003;6582;54.644;9.760;2023-06-10T02:30:01;206.9;201.4;
13030;PMS7003;6582;54.644;9.760;2023-06-10T02:35:01;207.0;202.4;
13030;PMS7003;6582;54.644;9.760;2023-06-10T02:40:01;208.4;203.3;
13030;PMS7003;6582;54.644;9.760;2023-06-10T02:45:03;207.7;202.5;
13030;PMS7003;6582;54.644;9.760;2023-06-10T02:50:02;192.7;186.8;
13030;PMS7003;6582;54.644;9.760;2023-06-10T02:55:01;179.2;173.1;
13030;PMS7003;6582;54.644;9.760;2023-06-10T03:00:01;169.2;162.5;
13030;PMS7003;6582;54.644;9.760;2023-06-10T03:05:01;159.6;152.4;
13030;PMS7003;6582;54.644;9.760;2023-06-10T03:10:01;151.6;144.2;
13030;PMS7003;6582;54.644;9.760;2023-06-10T03:15:01;158.9;151.0;
13030;PMS7003;6582;54.644;9.760;2023-06-10T03:20:02;164.9;156.6;
13030;PMS7003;6582;54.644;9.760;2023-06-10T03:30:01;152.1;144.3;
13030;PMS7003;6582;54.644;9.760;2023-06-10T03:35:02;148.6;141.0;
13030;PMS7003;6582;54.644;9.760;2023-06-10T03:40:01;147.7;140.5;
13030;PMS7003;6582;54.644;9.760;2023-06-10T03:45:01;143.6;136.4;
13030;PMS7003;6582;54.644;9.760;2023-06-10T03:50:01;141.7;134.0;
13030;PMS7003;6582;54.644;9.760;2023-06-10T03:55:01;151.4;144.2;
13030;PMS7003;6582;54.644;9.760;2023-06-10T04:00:01;148.3;141.3;
13030;PMS7003;6582;54.644;9.760;2023-06-10T04:05:01;151.8;145.0;
13030;PMS7003;6582;54.644;9.760;2023-06-10T04:10:01;156.0;150.2;
13030;PMS7003;6582;54.644;9.760;2023-06-10T04:15:01;159.0;153.7;
13030;PMS7003;6582;54.644;9.760;2023-06-10T04:20:01;162.6;157.4;
13030;PMS7003;6582;54.644;9.760;2023-06-10T04:25:06;168.3;162.9;
13030;PMS7003;6582;54.644;9.760;2023-06-10T04:30:02;164.1;158.6;
13030;PMS7003;6582;54.644;9.760;2023-06-10T04:35:01;157.9;151.9;
13030;PMS7003;6582;54.644;9.760;2023-06-10T04:40:01;150.5;144.2;
13030;PMS7003;6582;54.644;9.760;2023-06-10T04:45:01;136.6;129.8;
13030;PMS7003;6582;54.644;9.760;2023-06-10T04:50:01;122.0;115.2;
13030;PMS7003;6582;54.644;9.760;2023-06-10T04:55:07;109.2;102.0;
13030;PMS7003;6582;54.644;9.760;2023-06-10T05:00:02;96.9;89.6;
13030;PMS7003;6582;54.644;9.760;2023-06-10T05:05:06;87.1;78.5;
13030;PMS7003;6582;54.644;9.760;2023-06-10T05:10:01;82.9;72.3;
13030;PMS7003;6582;54.644;9.760;2023-06-10T05:15:01;79.2;66.7;
13030;PMS7003;6582;54.644;9.760;2023-06-10T05:20:03;77.0;62.6;
13030;PMS7003;6582;54.644;9.760;2023-06-10T05:25:01;75.6;59.0;
13030;PMS7003;6582;54.644;9.760;2023-06-10T05:30:02;75.2;57.9;
13030;PMS7003;6582;54.644;9.760;2023-06-10T05:35:02;75.3;57.8;
13030;PMS7003;6582;54.644;9.760;2023-06-10T05:40:01;75.6;58.3;
13030;PMS7003;6582;54.644;9.760;2023-06-10T05:45:02;75.7;58.7;
13030;PMS7003;6582;54.644;9.760;2023-06-10T05:50:02;75.6;59.0;
13030;PMS7003;6582;54.644;9.760;2023-06-10T05:55:02;75.8;59.3;
13030;PMS7003;6582;54.644;9.760;2023-06-10T06:00:01;75.7;60.4;
13030;PMS7003;6582;54.644;9.760;2023-06-10T06:05:01;75.4;60.1;
13030;PMS7003;6582;54.644;9.760;2023-06-10T06:10:01;77.9;63.0;
13030;PMS7003;6582;54.644;9.760;2023-06-10T06:15:01;78.4;64.0;
13030;PMS7003;6582;54.644;9.760;2023-06-10T06:20:02;78.5;64.6;
13030;PMS7003;6582;54.644;9.760;2023-06-10T06:25:02;78.7;64.5;
13030;PMS7003;6582;54.644;9.760;2023-06-10T06:30:02;79.6;66.4;
13030;PMS7003;6582;54.644;9.760;2023-06-10T06:35:02;78.1;65.2;
13030;PMS7003;6582;54.644;9.760;2023-06-10T06:40:05;78.6;65.2;
13030;PMS7003;6582;54.644;9.760;2023-06-10T06:45:01;78.0;64.9;
13030;PMS7003;6582;54.644;9.760;2023-06-10T06:50:01;77.3;64.5;
13030;PMS7003;6582;54.644;9.760;2023-06-10T06:55:02;80.3;67.2;
13030;PMS7003;6582;54.644;9.760;2023-06-10T07:00:06;78.4;65.3;
13030;PMS7003;6582;54.644;9.760;2023-06-10T07:05:01;76.6;63.6;
13030;PMS7003;6582;54.644;9.760;2023-06-10T07:10:01;76.0;62.2;
13030;PMS7003;6582;54.644;9.760;2023-06-10T07:15:01;75.7;61.3;
13030;PMS7003;6582;54.644;9.760;2023-06-10T07:20:01;71.6;56.6;
13030;PMS7003;6582;54.644;9.760;2023-06-10T07:25:01;71.0;56.1;
13030;PMS7003;6582;54.644;9.760;2023-06-10T07:30:01;70.8;56.8;
13030;PMS7003;6582;54.644;9.760;2023-06-10T07:40:06;70.6;57.4;
13030;PMS7003;6582;54.644;9.760;2023-06-10T07:45:02;69.3;56.6;
13030;PMS7003;6582;54.644;9.760;2023-06-10T07:50:01;69.8;56.7;
13030;PMS7003;6582;54.644;9.760;2023-06-10T07:55:01;70.1;57.1;
13030;PMS7003;6582;54.644;9.760;2023-06-10T08:00:06;70.1;57.5;
13030;PMS7003;6582;54.644;9.760;2023-06-10T08:05:02;70.7;57.6;
13030;PMS7003;6582;54.644;9.760;2023-06-10T08:10:01;71.5;58.4;
13030;PMS7003;6582;54.644;9.760;2023-06-10T08:15:02;72.0;59.4;
13030;PMS7003;6582;54.644;9.760;2023-06-10T08:25:01;70.4;58.2;
13030;PMS7003;6582;54.644;9.760;2023-06-10T08:30:02;69.2;57.4;
13030;PMS7003;6582;54.644;9.760;2023-06-10T08:35:01;68.8;57.6;
13030;PMS7003;6582;54.644;9.760;2023-06-10T08:40:01;68.4;57.3;
13030;PMS7003;6582;54.644;9.760;2023-06-10T08:45:04;68.0;56.6;
13030;PMS7003;6582;54.644;9.760;2023-06-10T08:50:02;70.8;59.1;
13030;PMS7003;6582;54.644;9.760;2023-06-10T08:55:10;72.2;60.7;
13030;PMS7003;6582;54.644;9.760;2023-06-10T09:00:01;73.5;62.4;
13030;PMS7003;6582;54.644;9.760;2023-06-10T09:05:07;74.3;64.0;
13030;PMS7003;6582;54.644;9.760;2023-06-10T09:10:02;76.5;68.4;
13030;PMS7003;6582;54.644;9.760;2023-06-10T09:15:16;77.7;71.2;
13030;PMS7003;6582;54.644;9.760;2023-06-10T09:20:01;78.6;72.8;
13030;PMS7003;6582;54.644;9.760;2023-06-10T09:25:02;79.4;74.6;
13030;PMS7003;6582;54.644;9.760;2023-06-10T09:30:01;80.2;75.2;
13030;PMS7003;6582;54.644;9.760;2023-06-10T09:35:02;81.9;75.7;
13030;PMS7003;6582;54.644;9.760;2023-06-10T09:40:07;80.8;74.1;
13030;PMS7003;6582;54.644;9.760;2023-06-10T09:45:02;80.6;73.8;
13030;PMS7003;6582;54.644;9.760;2023-06-10T09:50:01;80.1;72.0;
13030;PMS7003;6582;54.644;9.760;2023-06-10T10:00:09;77.2;69.1;
13030;PMS7003;6582;54.644;9.760;2023-06-10T10:05:02;76.6;68.6;
13030;PMS7003;6582;54.644;9.760;2023-06-10T10:10:02;76.4;68.4;
13030;PMS7003;6582;54.644;9.760;2023-06-10T10:15:01;77.4;69.9;
13030;PMS7003;6582;54.644;9.760;2023-06-10T10:20:03;76.8;69.5;
13030;PMS7003;6582;54.644;9.760;2023-06-10T10:25:02;77.3;70.0;
13030;PMS7003;6582;54.644;9.760;2023-06-10T10:30:02;77.7;70.5;
13030;PMS7003;6582;54.644;9.760;2023-06-10T10:35:09;77.8;70.4;
13030;PMS7003;6582;54.644;9.760;2023-06-10T10:40:01;77.0;69.0;
13030;PMS7003;6582;54.644;9.760;2023-06-10T10:45:06;77.1;69.1;
13030;PMS7003;6582;54.644;9.760;2023-06-10T10:50:03;76.9;68.5;
13030;PMS7003;6582;54.644;9.760;2023-06-10T10:55:02;77.6;69.4;
13030;PMS7003;6582;54.644;9.760;2023-06-10T11:00:03;77.7;70.0;
13030;PMS7003;6582;54.644;9.760;2023-06-10T11:05:02;79.6;72.8;
13030;PMS7003;6582;54.644;9.760;2023-06-10T11:10:09;84.5;77.6;
13030;PMS7003;6582;54.644;9.760;2023-06-10T11:15:01;87.8;81.3;
13030;PMS7003;6582;54.644;9.760;2023-06-10T11:20:02;89.8;82.9;
13030;PMS7003;6582;54.644;9.760;2023-06-10T11:25:01;92.1;84.8;
13030;PMS7003;6582;54.644;9.760;2023-06-10T11:45:01;94.2;86.2;
13030;PMS7003;6582;54.644;9.760;2023-06-10T11:50:01;95.1;87.3;
13030;PMS7003;6582;54.644;9.760;2023-06-10T11:55:01;94.7;87.0;
13030;PMS7003;6582;54.644;9.760;2023-06-10T12:00:08;94.1;86.0;
13030;PMS7003;6582;54.644;9.760;2023-06-10T12:05:09;94.3;86.2;
13030;PMS7003;6582;54.644;9.760;2023-06-10T12:10:28;93.7;85.5;
13030;PMS7003;6582;54.644;9.760;2023-06-10T12:15:02;89.5;81.0;
13030;PMS7003;6582;54.644;9.760;2023-06-10T12:20:02;89.0;80.9;
13030;PMS7003;6582;54.644;9.760;2023-06-10T12:25:02;88.8;81.3;
13030;PMS7003;6582;54.644;9.760;2023-06-10T12:30:02;88.9;81.2;
13030;PMS7003;6582;54.644;9.760;2023-06-10T12:35:02;89.4;81.7;
13030;PMS7003;6582;54.644;9.760;2023-06-10T12:40:01;91.8;84.7;
13030;PMS7003;6582;54.644;9.760;2023-06-10T12:45:02;91.5;84.4;
13030;PMS7003;6582;54.644;9.760;2023-06-10T12:50:02;91.4;84.1;
13030;PMS7003;6582;54.644;9.760;2023-06-10T12:55:01;90.3;82.9;
13030;PMS7003;6582;54.644;9.760;2023-06-10T13:00:01;91.4;84.1;
13030;PMS7003;6582;54.644;9.760;2023-06-10T13:05:02;89.2;81.3;
13030;PMS7003;6582;54.644;9.760;2023-06-10T13:10:01;86.2;77.9;
13030;PMS7003;6582;54.644;9.760;2023-06-10T13:15:01;83.9;75.6;
13030;PMS7003;6582;54.644;9.760;2023-06-10T13:20:03;82.8;74.1;
13030;PMS7003;6582;54.644;9.760;2023-06-10T13:25:02;79.0;70.3;
13030;PMS7003;6582;54.644;9.760;2023-06-10T13:30:01;78.8;70.6;
13030;PMS7003;6582;54.644;9.760;2023-06-10T13:35:10;78.9;71.0;
13030;PMS7003;6582;54.644;9.760;2023-06-10T13:40:01;78.6;70.4;
13030;PMS7003;6582;54.644;9.760;2023-06-10T13:45:02;76.4;68.8;
13030;PMS7003;6582;54.644;9.760;2023-06-10T13:50:01;75.7;68.2;
13030;PMS7003;6582;54.644;9.760;2023-06-10T13:55:01;76.0;68.0;
13030;PMS7003;6582;54.644;9.760;2023-06-10T14:00:01;75.8;67.6;
13030;PMS7003;6582;54.644;9.760;2023-06-10T14:05:01;75.3;67.4;
13030;PMS7003;6582;54.644;9.760;2023-06-10T14:10:01;76.0;68.2;
13030;PMS7003;6582;54.644;9.760;2023-06-10T14:15:01;75.8;68.1;
13030;PMS7003;6582;54.644;9.760;2023-06-10T14:20:01;76.0;68.2;
13030;PMS7003;6582;54.644;9.760;2023-06-10T14:30:01;76.0;67.5;
13030;PMS7003;6582;54.644;9.760;2023-06-10T14:35:02;75.6;67.2;
13030;PMS7003;6582;54.644;9.760;2023-06-10T14:40:01;76.0;67.4;
13030;PMS7003;6582;54.644;9.760;2023-06-10T14:45:01;75.6;67.1;
13030;PMS7003;6582;54.644;9.760;2023-06-10T15:05:01;76.0;67.2;
13030;PMS7003;6582;54.644;9.760;2023-06-10T15:10:02;74.3;66.4;
13030;PMS7003;6582;54.644;9.760;2023-06-10T15:15:02;73.9;66.5;
13030;PMS7003;6582;54.644;9.760;2023-06-10T15:25:02;74.2;67.0;
13030;PMS7003;6582;54.644;9.760;2023-06-10T15:30:02;73.7;67.0;
13030;PMS7003;6582;54.644;9.760;2023-06-10T15:35:01;74.2;68.0;
13030;PMS7003;6582;54.644;9.760;2023-06-10T15:40:01;76.0;69.1;
13030;PMS7003;6582;54.644;9.760;2023-06-10T15:45:01;76.1;68.8;
13030;PMS7003;6582;54.644;9.760;2023-06-10T15:50:01;75.8;68.5;
13030;PMS7003;6582;54.644;9.760;2023-06-10T15:55:02;76.2;68.5;
13030;PMS7003;6582;54.644;9.760;2023-06-10T16:00:06;76.1;67.7;
13030;PMS7003;6582;54.644;9.760;2023-06-10T16:05:01;74.9;66.9;
13030;PMS7003;6582;54.644;9.760;2023-06-10T16:10:01;75.5;67.5;
13030;PMS7003;6582;54.644;9.760;2023-06-10T16:15:01;76.0;67.7;
13030;PMS7003;6582;54.644;9.760;2023-06-10T16:20:01;76.2;67.4;
13030;PMS7003;6582;54.644;9.760;2023-06-10T16:25:01;76.6;67.8;
13030;PMS7003;6582;54.644;9.760;2023-06-10T16:30:01;76.0;67.5;
13030;PMS7003;6582;54.644;9.760;2023-06-10T16:35:01;74.8;66.7;
13030;PMS7003;6582;54.644;9.760;2023-06-10T16:40:01;74.3;66.9;
13030;PMS7003;6582;54.644;9.760;2023-06-10T16:45:01;73.5;67.3;
13030;PMS7003;6582;54.644;9.760;2023-06-10T16:50:01;72.7;66.9;
13030;PMS7003;6582;54.644;9.760;2023-06-10T17:00:01;73.4;68.1;
13030;PMS7003;6582;54.644;9.760;2023-06-10T17:05:01;73.7;68.1;
13030;PMS7003;6582;54.644;9.760;2023-06-10T17:10:01;74.2;68.7;
13030;PMS7003;6582;54.644;9.760;2023-06-10T17:15:01;74.8;69.8;
13030;PMS7003;6582;54.644;9.760;2023-06-10T17:20:01;75.6;70.9;
13030;PMS7003;6582;54.644;9.760;2023-06-10T17:25:01;76.3;70.7;
13030;PMS7003;6582;54.644;9.760;2023-06-10T17:30:01;77.0;70.8;
13030;PMS7003;6582;54.644;9.760;2023-06-10T17:35:01;77.3;69.5;
13030;PMS7003;6582;54.644;9.760;2023-06-10T17:40:01;78.4;69.9;
13030;PMS7003;6582;54.644;9.760;2023-06-10T17:45:01;79.3;70.0;
13030;PMS7003;6582;54.644;9.760;2023-06-10T17:50:01;79.8;70.6;
13030;PMS7003;6582;54.644;9.760;2023-06-10T17:55:01;79.5;70.2;
13030;PMS7003;6582;54.644;9.760;2023-06-10T18:00:01;79.5;70.0;
13030;PMS7003;6582;54.644;9.760;2023-06-10T18:05:01;78.0;68.4;
13030;PMS7003;6582;54.644;9.760;2023-06-10T18:10:01;77.0;67.6;
13030;PMS7003;6582;54.644;9.760;2023-06-10T18:15:01;75.6;65.6;
13030;PMS7003;6582;54.644;9.760;2023-06-10T18:20:01;75.2;64.9;
13030;PMS7003;6582;54.644;9.760;2023-06-10T18:25:01;75.6;65.6;
13030;PMS7003;6582;54.644;9.760;2023-06-10T18:30:01;76.0;64.7;
13030;PMS7003;6582;54.644;9.760;2023-06-10T18:35:01;76.2;64.2;
13030;PMS7003;6582;54.644;9.760;2023-06-10T18:40:01;76.8;64.9;
13030;PMS7003;6582;54.644;9.760;2023-06-10T18:45:01;76.9;64.7;
13030;PMS7003;6582;54.644;9.760;2023-06-10T18:50:01;76.6;64.2;
13030;PMS7003;6582;54.644;9.760;2023-06-10T18:55:01;76.3;64.6;
13030;PMS7003;6582;54.644;9.760;2023-06-10T19:00:01;76.2;64.2;
13030;PMS7003;6582;54.644;9.760;2023-06-10T19:05:01;76.4;63.8;
13030;PMS7003;6582;54.644;9.760;2023-06-10T19:10:01;76.6;64.2;
13030;PMS7003;6582;54.644;9.760;2023-06-10T19:15:01;76.4;63.9;
13030;PMS7003;6582;54.644;9.760;2023-06-10T19:20:01;76.8;64.3;
13030;PMS7003;6582;54.644;9.760;2023-06-10T19:25:02;76.6;64.3;
13030;PMS7003;6582;54.644;9.760;2023-06-10T19:30:01;76.5;64.7;
13030;PMS7003;6582;54.644;9.760;2023-06-10T19:35:01;76.1;64.1;
13030;PMS7003;6582;54.644;9.760;2023-06-10T19:40:01;76.2;63.7;
13030;PMS7003;6582;54.644;9.760;2023-06-10T19:45:01;75.8;62.6;
13030;PMS7003;6582;54.644;9.760;2023-06-10T19:55:06;75.9;61.6;
13030;PMS7003;6582;54.644;9.760;2023-06-10T20:00:06;76.0;61.6;
13030;PMS7003;6582;54.644;9.760;2023-06-10T20:10:01;75.9;62.3;
13030;PMS7003;6582;54.644;9.760;2023-06-10T20:15:02;76.7;62.9;
13030;PMS7003;6582;54.644;9.760;2023-06-10T20:20:01;76.4;62.8;
13030;PMS7003;6582;54.644;9.760;2023-06-10T20:25:01;76.7;62.8;
13030;PMS7003;6582;54.644;9.760;2023-06-10T20:30:01;76.9;62.5;
13030;PMS7003;6582;54.644;9.760;2023-06-10T20:35:06;77.8;63.7;
13030;PMS7003;6582;54.644;9.760;2023-06-10T20:40:01;76.9;62.8;
13030;PMS7003;6582;54.644;9.760;2023-06-10T20:45:01;76.9;63.4;
13030;PMS7003;6582;54.644;9.760;2023-06-10T20:50:01;77.0;64.4;
13030;PMS7003;6582;54.644;9.760;2023-06-10T20:55:01;75.9;64.3;
13030;PMS7003;6582;54.644;9.760;2023-06-10T21:00:01;74.6;62.8;
13030;PMS7003;6582;54.644;9.760;2023-06-10T21:05:01;73.9;62.4;
13030;PMS7003;6582;54.644;9.760;2023-06-10T21:10:01;73.8;62.8;
13030;PMS7003;6582;54.644;9.760;2023-06-10T21:15:01;72.7;61.6;
13030;PMS7003;6582;54.644;9.760;2023-06-10T21:20:02;72.9;61.3;
13030;PMS7003;6582;54.644;9.760;2023-06-10T21:25:02;72.0;60.2;
13030;PMS7003;6582;54.644;9.760;2023-06-10T21:30:03;71.3;59.2;
13030;PMS7003;6582;54.644;9.760;2023-06-10T21:35:01;69.6;57.0;
13030;PMS7003;6582;54.644;9.760;2023-06-10T21:40:01;68.8;55.8;
13030;PMS7003;6582;54.644;9.760;2023-06-10T21:45:01;67.4;54.9;
13030;PMS7003;6582;54.644;9.760;2023-06-10T21:50:01;66.8;54.6;
13030;PMS7003;6582;54.644;9.760;2023-06-10T21:55:02;65.9;54.2;
13030;PMS7003;6582;54.644;9.760;2023-06-10T22:00:03;65.5;53.8;
13030;PMS7003;6582;54.644;9.760;2023-06-10T22:05:06;64.8;53.4;
13030;PMS7003;6582;54.644;9.760;2023-06-10T22:10:05;65.4;53.6;
13030;PMS7003;6582;54.644;9.760;2023-06-10T22:15:01;66.6;54.3;
13030;PMS7003;6582;54.644;9.760;2023-06-10T22:20:02;67.2;54.4;
13030;PMS7003;6582;54.644;9.760;2023-06-10T22:25:01;68.3;55.2;
13030;PMS7003;6582;54.644;9.760;2023-06-10T22:30:01;68.5;55.4;
13030;PMS7003;6582;54.644;9.760;2023-06-10T22:35:02;68.8;55.6;
13030;PMS7003;6582;54.644;9.760;2023-06-10T22:40:01;68.6;55.5;
13030;PMS7003;6582;54.644;9.760;2023-06-10T22:45:01;70.0;57.0;
13030;PMS7003;6582;54.644;9.760;2023-06-10T22:50:01;70.5;57.6;
13030;PMS7003;6582;54.644;9.760;2023-06-10T22:55:01;73.0;59.2;
13030;PMS7003;6582;54.644;9.760;2023-06-10T23:00:01;74.5;60.6;
13030;PMS7003;6582;54.644;9.760;2023-06-10T23:25:01;69.8;56.8;
13030;PMS7003;6582;54.644;9.760;2023-06-10T23:30:06;70.5;57.0;
13030;PMS7003;6582;54.644;9.760;2023-06-10T23:35:01;70.7;57.2;
13030;PMS7003;6582;54.644;9.760;2023-06-10T23:40:01;76.8;64.4;
13030;PMS7003;6582;54.644;9.760;2023-06-10T23:45:01;75.7;63.2;
13030;PMS7003;6582;54.644;9.760;2023-06-10T23:50:01;75.8;63.1;
13030;PMS7003;6582;54.644;9.760;2023-06-10T23:55:01;76.6;63.5;
